sensor_id;sensor_type;location;lat;lon;timestamp;temperature;humidity
580;DHT22;276;48.392;9.950;2023-05-10T00:00:00;16.20;99.90
580;DHT22;276;48.392;9.950;2023-05-10T00:02:26;16.20;99.90
580;DHT22;276;48.392;9.950;2023-05-10T00:04:52;16.20;99.90
580;DHT22;276;48.392;9.950;2023-05-10T00:07:17;16.10;99.90
580;DHT22;276;48.392;9.950;2023-05-10T00:09:43;16.10;99.90
580;DHT22;276;48.392;9.950;2023-05-10T00:12:09;16.10;99.90
580;DHT22;276;48.392;9.950;2023-05-10T00:14:37;16.00;99.90
580;DHT22;276;48.392;9.950;2023-05-10T00:17:05;16.00;99.90
580;DHT22;276;48.392;9.950;2023-05-10T00:19:31;16.00;99.90
580;DHT22;276;48.392;9.950;2023-05-10T00:21:56;15.90;99.90
580;DHT22;276;48.392;9.950;2023-05-10T00:24:22;15.90;99.90
580;DHT22;276;48.392;9.950;2023-05-10T00:26:48;16.00;99.90
580;DHT22;276;48.392;9.950;2023-05-10T00:29:13;16.00;99.90
580;DHT22;276;48.392;9.950;2023-05-10T00:31:41;16.00;99.90
580;DHT22;276;48.392;9.950;2023-05-10T00:34:06;15.90;99.90
580;DHT22;276;48.392;9.950;2023-05-10T00:36:32;15.90;99.90
580;DHT22;276;48.392;9.950;2023-05-10T00:39:00;15.90;99.90
580;DHT22;276;48.392;9.950;2023-05-10T00:41:29;15.90;99.90
580;DHT22;276;48.392;9.950;2023-05-10T00:43:57;15.90;99.90
580;DHT22;276;48.392;9.950;2023-05-10T00:46:22;15.90;99.90
580;DHT22;276;48.392;9.950;2023-05-10T00:48:48;15.90;99.90
580;DHT22;276;48.392;9.950;2023-05-10T00:51:14;15.90;99.90
580;DHT22;276;48.392;9.950;2023-05-10T00:53:43;15.90;99.90
580;DHT22;276;48.392;9.950;2023-05-10T00:56:14;15.90;99.90
580;DHT22;276;48.392;9.950;2023-05-10T00:58:42;15.90;99.90
580;DHT22;276;48.392;9.950;2023-05-10T01:01:08;15.90;99.90
580;DHT22;276;48.392;9.950;2023-05-10T01:03:35;16.00;99.90
580;DHT22;276;48.392;9.950;2023-05-10T01:06:03;15.90;99.90
580;DHT22;276;48.392;9.950;2023-05-10T01:08:29;15.90;99.90
580;DHT22;276;48.392;9.950;2023-05-10T01:10:55;15.90;99.90
580;DHT22;276;48.392;9.950;2023-05-10T01:13:50;15.80;99.90
580;DHT22;276;48.392;9.950;2023-05-10T01:16:17;15.90;99.90
580;DHT22;276;48.392;9.950;2023-05-10T01:18:44;15.90;99.90
580;DHT22;276;48.392;9.950;2023-05-10T01:22:18;15.80;99.90
580;DHT22;276;48.392;9.950;2023-05-10T01:24:38;15.80;99.90
580;DHT22;276;48.392;9.950;2023-05-10T01:27:17;15.80;99.90
580;DHT22;276;48.392;9.950;2023-05-10T01:32:53;15.90;99.90
580;DHT22;276;48.392;9.950;2023-05-10T01:35:43;15.90;99.90
580;DHT22;276;48.392;9.950;2023-05-10T01:41:19;16.00;99.90
580;DHT22;276;48.392;9.950;2023-05-10T01:44:04;16.00;99.90
580;DHT22;276;48.392;9.950;2023-05-10T01:46:37;16.00;99.90
580;DHT22;276;48.392;9.950;2023-05-10T01:49:13;16.10;99.90
580;DHT22;276;48.392;9.950;2023-05-10T01:51:51;16.10;99.90
580;DHT22;276;48.392;9.950;2023-05-10T01:54:21;16.20;99.90
580;DHT22;276;48.392;9.950;2023-05-10T01:57:02;16.20;99.90
580;DHT22;276;48.392;9.950;2023-05-10T01:59:34;16.20;99.90
580;DHT22;276;48.392;9.950;2023-05-10T02:02:07;16.30;99.90
580;DHT22;276;48.392;9.950;2023-05-10T02:04:35;16.30;99.90
580;DHT22;276;48.392;9.950;2023-05-10T02:07:04;16.30;99.90
580;DHT22;276;48.392;9.950;2023-05-10T02:09:33;16.20;99.90
580;DHT22;276;48.392;9.950;2023-05-10T02:12:04;16.20;99.90
580;DHT22;276;48.392;9.950;2023-05-10T02:14:35;16.10;99.90
580;DHT22;276;48.392;9.950;2023-05-10T02:17:04;16.10;99.90
580;DHT22;276;48.392;9.950;2023-05-10T02:19:32;16.10;99.90
580;DHT22;276;48.392;9.950;2023-05-10T02:21:59;16.10;99.90
580;DHT22;276;48.392;9.950;2023-05-10T02:24:28;16.20;99.90
580;DHT22;276;48.392;9.950;2023-05-10T02:26:55;16.20;99.90
580;DHT22;276;48.392;9.950;2023-05-10T02:29:27;16.20;99.90
580;DHT22;276;48.392;9.950;2023-05-10T02:31:54;16.20;99.90
580;DHT22;276;48.392;9.950;2023-05-10T02:34:25;16.20;99.90
580;DHT22;276;48.392;9.950;2023-05-10T02:36:52;16.10;99.90
580;DHT22;276;48.392;9.950;2023-05-10T02:39:19;16.10;99.90
580;DHT22;276;48.392;9.950;2023-05-10T02:41:46;16.10;99.90
580;DHT22;276;48.392;9.950;2023-05-10T02:44:15;16.10;99.90
580;DHT22;276;48.392;9.950;2023-05-10T02:46:42;16.10;99.90
580;DHT22;276;48.392;9.950;2023-05-10T02:49:11;16.10;99.90
580;DHT22;276;48.392;9.950;2023-05-10T02:51:41;16.10;99.90
580;DHT22;276;48.392;9.950;2023-05-10T02:54:15;16.10;99.90
580;DHT22;276;48.392;9.950;2023-05-10T02:56:50;16.10;99.90
580;DHT22;276;48.392;9.950;2023-05-10T02:59:16;16.10;99.90
580;DHT22;276;48.392;9.950;2023-05-10T03:01:42;16.10;99.90
580;DHT22;276;48.392;9.950;2023-05-10T03:04:07;16.10;99.90
580;DHT22;276;48.392;9.950;2023-05-10T03:06:35;16.10;99.90
580;DHT22;276;48.392;9.950;2023-05-10T03:09:01;16.10;99.90
580;DHT22;276;48.392;9.950;2023-05-10T03:17:25;16.10;99.90
580;DHT22;276;48.392;9.950;2023-05-10T03:19:57;16.10;99.90
580;DHT22;276;48.392;9.950;2023-05-10T03:22:32;16.10;99.90
580;DHT22;276;48.392;9.950;2023-05-10T03:25:01;16.10;99.90
580;DHT22;276;48.392;9.950;2023-05-10T03:27:31;16.10;99.90
580;DHT22;276;48.392;9.950;2023-05-10T03:29:57;16.10;99.90
580;DHT22;276;48.392;9.950;2023-05-10T03:32:23;16.00;99.90
580;DHT22;276;48.392;9.950;2023-05-10T03:34:49;16.00;99.90
580;DHT22;276;48.392;9.950;2023-05-10T03:37:15;16.00;99.90
580;DHT22;276;48.392;9.950;2023-05-10T03:39:40;15.90;99.90
580;DHT22;276;48.392;9.950;2023-05-10T03:42:08;15.90;99.90
580;DHT22;276;48.392;9.950;2023-05-10T03:44:38;15.90;99.90
580;DHT22;276;48.392;9.950;2023-05-10T03:47:06;15.90;99.90
580;DHT22;276;48.392;9.950;2023-05-10T03:49:31;15.90;99.90
580;DHT22;276;48.392;9.950;2023-05-10T03:51:57;16.00;99.90
580;DHT22;276;48.392;9.950;2023-05-10T03:54:23;16.00;99.90
580;DHT22;276;48.392;9.950;2023-05-10T03:56:51;16.00;99.90
580;DHT22;276;48.392;9.950;2023-05-10T03:59:19;16.00;99.90
580;DHT22;276;48.392;9.950;2023-05-10T04:01:45;16.00;99.90
580;DHT22;276;48.392;9.950;2023-05-10T04:04:11;15.90;99.90
580;DHT22;276;48.392;9.950;2023-05-10T04:06:38;15.90;99.90
580;DHT22;276;48.392;9.950;2023-05-10T04:09:04;15.90;99.90
580;DHT22;276;48.392;9.950;2023-05-10T04:11:32;15.90;99.90
580;DHT22;276;48.392;9.950;2023-05-10T04:14:00;15.90;99.90
580;DHT22;276;48.392;9.950;2023-05-10T04:16:25;15.90;99.90
580;DHT22;276;48.392;9.950;2023-05-10T04:18:51;15.90;99.90
580;DHT22;276;48.392;9.950;2023-05-10T04:21:16;15.80;99.90
580;DHT22;276;48.392;9.950;2023-05-10T04:23:42;15.80;99.90
580;DHT22;276;48.392;9.950;2023-05-10T04:26:12;15.70;99.90
580;DHT22;276;48.392;9.950;2023-05-10T04:28:38;15.70;99.90
580;DHT22;276;48.392;9.950;2023-05-10T04:31:07;15.60;99.90
580;DHT22;276;48.392;9.950;2023-05-10T04:33:33;15.50;99.90
580;DHT22;276;48.392;9.950;2023-05-10T04:36:02;15.50;99.90
580;DHT22;276;48.392;9.950;2023-05-10T04:38:28;15.40;99.90
580;DHT22;276;48.392;9.950;2023-05-10T04:40:54;15.40;99.90
580;DHT22;276;48.392;9.950;2023-05-10T04:43:21;15.40;99.90
580;DHT22;276;48.392;9.950;2023-05-10T04:45:49;15.40;99.90
580;DHT22;276;48.392;9.950;2023-05-10T04:48:15;15.50;99.90
580;DHT22;276;48.392;9.950;2023-05-10T04:50:43;15.50;99.90
580;DHT22;276;48.392;9.950;2023-05-10T04:53:11;15.50;99.90
580;DHT22;276;48.392;9.950;2023-05-10T04:55:37;15.50;99.90
580;DHT22;276;48.392;9.950;2023-05-10T04:58:02;15.60;99.90
580;DHT22;276;48.392;9.950;2023-05-10T05:00:30;15.60;99.90
580;DHT22;276;48.392;9.950;2023-05-10T05:02:56;15.60;99.90
580;DHT22;276;48.392;9.950;2023-05-10T05:05:21;15.70;99.90
580;DHT22;276;48.392;9.950;2023-05-10T05:07:47;15.70;99.90
580;DHT22;276;48.392;9.950;2023-05-10T05:10:12;15.70;99.90
580;DHT22;276;48.392;9.950;2023-05-10T05:12:38;15.70;99.90
580;DHT22;276;48.392;9.950;2023-05-10T05:15:04;15.70;99.90
580;DHT22;276;48.392;9.950;2023-05-10T05:17:30;15.60;99.90
580;DHT22;276;48.392;9.950;2023-05-10T05:19:56;15.60;99.90
580;DHT22;276;48.392;9.950;2023-05-10T05:22:22;15.60;99.90
580;DHT22;276;48.392;9.950;2023-05-10T05:24:59;15.60;99.90
580;DHT22;276;48.392;9.950;2023-05-10T05:27:25;15.50;99.90
580;DHT22;276;48.392;9.950;2023-05-10T05:29:53;15.50;99.90
580;DHT22;276;48.392;9.950;2023-05-10T05:32:23;15.50;99.90
580;DHT22;276;48.392;9.950;2023-05-10T05:34:51;15.60;99.90
580;DHT22;276;48.392;9.950;2023-05-10T05:37:18;15.60;99.90
580;DHT22;276;48.392;9.950;2023-05-10T05:39:46;15.60;99.90
580;DHT22;276;48.392;9.950;2023-05-10T05:42:13;15.70;99.90
580;DHT22;276;48.392;9.950;2023-05-10T05:44:41;15.70;99.90
580;DHT22;276;48.392;9.950;2023-05-10T05:47:12;15.70;99.90
580;DHT22;276;48.392;9.950;2023-05-10T05:49:40;15.80;99.90
580;DHT22;276;48.392;9.950;2023-05-10T05:52:05;15.80;99.90
580;DHT22;276;48.392;9.950;2023-05-10T05:54:31;15.80;99.90
580;DHT22;276;48.392;9.950;2023-05-10T05:57:00;15.80;99.90
580;DHT22;276;48.392;9.950;2023-05-10T05:59:26;15.80;99.90
580;DHT22;276;48.392;9.950;2023-05-10T06:01:52;15.80;99.90
580;DHT22;276;48.392;9.950;2023-05-10T06:04:18;15.80;99.90
580;DHT22;276;48.392;9.950;2023-05-10T06:06:44;15.70;99.90
580;DHT22;276;48.392;9.950;2023-05-10T06:09:10;15.70;99.90
580;DHT22;276;48.392;9.950;2023-05-10T06:11:36;15.70;99.90
580;DHT22;276;48.392;9.950;2023-05-10T06:14:04;15.80;99.90
580;DHT22;276;48.392;9.950;2023-05-10T06:16:32;15.80;99.90
580;DHT22;276;48.392;9.950;2023-05-10T06:19:03;15.80;99.90
580;DHT22;276;48.392;9.950;2023-05-10T06:21:28;15.70;99.90
580;DHT22;276;48.392;9.950;2023-05-10T06:23:54;15.80;99.90
580;DHT22;276;48.392;9.950;2023-05-10T06:26:19;15.80;99.90
580;DHT22;276;48.392;9.950;2023-05-10T06:28:46;15.90;99.90
580;DHT22;276;48.392;9.950;2023-05-10T06:31:13;15.80;99.90
580;DHT22;276;48.392;9.950;2023-05-10T06:33:39;15.80;99.90
580;DHT22;276;48.392;9.950;2023-05-10T06:36:05;15.90;99.90
580;DHT22;276;48.392;9.950;2023-05-10T06:38:31;15.90;99.90
580;DHT22;276;48.392;9.950;2023-05-10T06:40:58;15.90;99.90
580;DHT22;276;48.392;9.950;2023-05-10T06:43:24;15.90;99.90
580;DHT22;276;48.392;9.950;2023-05-10T06:45:53;16.00;99.90
580;DHT22;276;48.392;9.950;2023-05-10T06:48:19;16.00;99.90
580;DHT22;276;48.392;9.950;2023-05-10T06:50:45;16.00;99.90
580;DHT22;276;48.392;9.950;2023-05-10T06:53:13;16.00;99.90
580;DHT22;276;48.392;9.950;2023-05-10T06:55:39;16.00;99.90
580;DHT22;276;48.392;9.950;2023-05-10T06:58:05;16.00;99.90
580;DHT22;276;48.392;9.950;2023-05-10T07:00:33;16.00;99.90
580;DHT22;276;48.392;9.950;2023-05-10T07:03:04;16.10;99.90
580;DHT22;276;48.392;9.950;2023-05-10T07:05:30;16.10;99.90
580;DHT22;276;48.392;9.950;2023-05-10T07:07:55;16.10;99.90
580;DHT22;276;48.392;9.950;2023-05-10T07:10:23;16.10;99.90
580;DHT22;276;48.392;9.950;2023-05-10T07:12:49;16.10;99.90
580;DHT22;276;48.392;9.950;2023-05-10T07:15:15;16.20;99.90
580;DHT22;276;48.392;9.950;2023-05-10T07:17:41;16.20;99.90
580;DHT22;276;48.392;9.950;2023-05-10T07:20:09;16.20;99.90
580;DHT22;276;48.392;9.950;2023-05-10T07:22:37;16.20;99.90
580;DHT22;276;48.392;9.950;2023-05-10T07:25:03;16.20;99.90
580;DHT22;276;48.392;9.950;2023-05-10T07:27:29;16.20;99.90
580;DHT22;276;48.392;9.950;2023-05-10T07:29:59;16.20;99.90
580;DHT22;276;48.392;9.950;2023-05-10T07:32:27;16.20;99.90
580;DHT22;276;48.392;9.950;2023-05-10T07:34:53;16.30;99.90
580;DHT22;276;48.392;9.950;2023-05-10T07:37:19;16.30;99.90
580;DHT22;276;48.392;9.950;2023-05-10T07:39:47;16.40;99.90
580;DHT22;276;48.392;9.950;2023-05-10T07:42:15;16.50;99.90
580;DHT22;276;48.392;9.950;2023-05-10T07:44:40;16.40;99.90
580;DHT22;276;48.392;9.950;2023-05-10T07:47:07;16.40;99.90
580;DHT22;276;48.392;9.950;2023-05-10T07:49:34;16.50;99.90
580;DHT22;276;48.392;9.950;2023-05-10T07:52:01;16.50;99.90
580;DHT22;276;48.392;9.950;2023-05-10T07:54:28;16.60;99.90
580;DHT22;276;48.392;9.950;2023-05-10T07:56:53;16.60;99.90
580;DHT22;276;48.392;9.950;2023-05-10T07:59:19;16.60;99.90
580;DHT22;276;48.392;9.950;2023-05-10T08:01:45;16.60;99.90
580;DHT22;276;48.392;9.950;2023-05-10T08:04:12;16.60;99.90
580;DHT22;276;48.392;9.950;2023-05-10T08:06:38;16.60;99.90
580;DHT22;276;48.392;9.950;2023-05-10T08:09:05;16.60;99.90
580;DHT22;276;48.392;9.950;2023-05-10T08:11:31;16.60;99.90
580;DHT22;276;48.392;9.950;2023-05-10T08:13:59;16.60;99.90
580;DHT22;276;48.392;9.950;2023-05-10T08:16:27;16.70;99.90
580;DHT22;276;48.392;9.950;2023-05-10T08:18:54;16.70;99.90
580;DHT22;276;48.392;9.950;2023-05-10T08:21:20;16.80;99.90
580;DHT22;276;48.392;9.950;2023-05-10T08:23:50;16.90;99.90
580;DHT22;276;48.392;9.950;2023-05-10T08:26:18;17.00;99.90
580;DHT22;276;48.392;9.950;2023-05-10T08:28:44;17.10;99.90
580;DHT22;276;48.392;9.950;2023-05-10T08:31:10;17.10;99.90
580;DHT22;276;48.392;9.950;2023-05-10T08:33:37;17.10;99.90
580;DHT22;276;48.392;9.950;2023-05-10T08:36:03;17.20;99.90
580;DHT22;276;48.392;9.950;2023-05-10T08:38:29;17.30;99.90
580;DHT22;276;48.392;9.950;2023-05-10T08:40:55;17.30;99.90
580;DHT22;276;48.392;9.950;2023-05-10T08:43:27;17.40;99.90
580;DHT22;276;48.392;9.950;2023-05-10T08:45:56;17.40;99.90
580;DHT22;276;48.392;9.950;2023-05-10T08:48:24;17.50;99.90
580;DHT22;276;48.392;9.950;2023-05-10T08:50:54;17.50;99.90
580;DHT22;276;48.392;9.950;2023-05-10T08:53:24;17.60;99.90
580;DHT22;276;48.392;9.950;2023-05-10T08:55:50;17.70;99.90
580;DHT22;276;48.392;9.950;2023-05-10T08:58:16;17.70;99.90
580;DHT22;276;48.392;9.950;2023-05-10T09:00:46;17.80;99.90
580;DHT22;276;48.392;9.950;2023-05-10T09:03:12;17.90;99.90
580;DHT22;276;48.392;9.950;2023-05-10T09:05:40;18.00;99.90
580;DHT22;276;48.392;9.950;2023-05-10T09:08:08;18.00;99.90
580;DHT22;276;48.392;9.950;2023-05-10T09:10:37;18.10;99.90
580;DHT22;276;48.392;9.950;2023-05-10T09:13:04;18.10;99.90
580;DHT22;276;48.392;9.950;2023-05-10T09:15:30;18.20;99.90
580;DHT22;276;48.392;9.950;2023-05-10T09:17:58;18.20;99.90
580;DHT22;276;48.392;9.950;2023-05-10T09:20:27;18.20;99.90
580;DHT22;276;48.392;9.950;2023-05-10T09:22:55;18.10;99.90
580;DHT22;276;48.392;9.950;2023-05-10T09:25:21;18.10;99.90
580;DHT22;276;48.392;9.950;2023-05-10T09:27:48;18.10;99.90
580;DHT22;276;48.392;9.950;2023-05-10T09:30:24;18.20;99.90
580;DHT22;276;48.392;9.950;2023-05-10T09:32:56;18.20;99.90
580;DHT22;276;48.392;9.950;2023-05-10T09:35:25;18.20;99.90
580;DHT22;276;48.392;9.950;2023-05-10T09:37:54;18.20;99.90
580;DHT22;276;48.392;9.950;2023-05-10T09:40:24;18.20;99.90
580;DHT22;276;48.392;9.950;2023-05-10T09:43:03;18.20;99.90
580;DHT22;276;48.392;9.950;2023-05-10T09:45:30;18.30;99.90
580;DHT22;276;48.392;9.950;2023-05-10T09:47:57;18.30;99.90
580;DHT22;276;48.392;9.950;2023-05-10T09:50:23;18.30;99.90
580;DHT22;276;48.392;9.950;2023-05-10T09:55:15;18.20;99.90
580;DHT22;276;48.392;9.950;2023-05-10T09:57:41;18.20;99.90
580;DHT22;276;48.392;9.950;2023-05-10T10:00:07;18.20;99.90
580;DHT22;276;48.392;9.950;2023-05-10T10:02:35;18.20;99.90
580;DHT22;276;48.392;9.950;2023-05-10T10:05:03;18.10;99.90
580;DHT22;276;48.392;9.950;2023-05-10T10:07:29;18.20;99.90
580;DHT22;276;48.392;9.950;2023-05-10T10:09:55;18.20;99.90
580;DHT22;276;48.392;9.950;2023-05-10T10:12:23;18.30;99.90
580;DHT22;276;48.392;9.950;2023-05-10T10:14:49;18.30;99.90
580;DHT22;276;48.392;9.950;2023-05-10T10:17:19;18.40;99.90
580;DHT22;276;48.392;9.950;2023-05-10T10:19:47;18.50;99.90
580;DHT22;276;48.392;9.950;2023-05-10T10:22:16;18.50;99.90
580;DHT22;276;48.392;9.950;2023-05-10T10:24:43;18.60;99.90
580;DHT22;276;48.392;9.950;2023-05-10T10:27:28;18.60;99.90
580;DHT22;276;48.392;9.950;2023-05-10T10:33:10;18.60;99.90
580;DHT22;276;48.392;9.950;2023-05-10T10:35:41;18.60;99.90
580;DHT22;276;48.392;9.950;2023-05-10T10:38:08;18.60;99.90
580;DHT22;276;48.392;9.950;2023-05-10T10:40:35;18.60;99.90
580;DHT22;276;48.392;9.950;2023-05-10T10:43:26;18.60;99.90
580;DHT22;276;48.392;9.950;2023-05-10T10:46:15;18.50;99.90
580;DHT22;276;48.392;9.950;2023-05-10T10:48:50;18.50;99.90
580;DHT22;276;48.392;9.950;2023-05-10T10:51:36;18.60;99.90
580;DHT22;276;48.392;9.950;2023-05-10T10:54:09;18.60;99.90
580;DHT22;276;48.392;9.950;2023-05-10T10:56:35;18.70;99.90
580;DHT22;276;48.392;9.950;2023-05-10T10:59:01;18.70;99.90
580;DHT22;276;48.392;9.950;2023-05-10T11:01:35;18.70;99.90
580;DHT22;276;48.392;9.950;2023-05-10T11:06:33;18.80;99.90
580;DHT22;276;48.392;9.950;2023-05-10T11:09:08;18.90;99.90
580;DHT22;276;48.392;9.950;2023-05-10T11:11:35;18.90;99.90
580;DHT22;276;48.392;9.950;2023-05-10T11:14:06;18.90;99.90
580;DHT22;276;48.392;9.950;2023-05-10T11:16:42;18.90;99.90
580;DHT22;276;48.392;9.950;2023-05-10T11:19:13;18.90;99.90
580;DHT22;276;48.392;9.950;2023-05-10T11:24:57;18.90;99.90
580;DHT22;276;48.392;9.950;2023-05-10T11:27:25;18.90;99.90
580;DHT22;276;48.392;9.950;2023-05-10T11:29:54;18.90;99.90
580;DHT22;276;48.392;9.950;2023-05-10T11:32:19;18.90;99.90
580;DHT22;276;48.392;9.950;2023-05-10T11:34:48;19.00;99.90
580;DHT22;276;48.392;9.950;2023-05-10T11:37:14;19.00;99.90
580;DHT22;276;48.392;9.950;2023-05-10T11:39:45;19.00;99.90
580;DHT22;276;48.392;9.950;2023-05-10T11:42:12;19.00;99.90
580;DHT22;276;48.392;9.950;2023-05-10T11:44:38;18.80;99.90
580;DHT22;276;48.392;9.950;2023-05-10T11:47:05;18.70;99.90
580;DHT22;276;48.392;9.950;2023-05-10T11:49:33;18.50;99.90
580;DHT22;276;48.392;9.950;2023-05-10T11:52:10;18.40;99.90
580;DHT22;276;48.392;9.950;2023-05-10T11:54:51;18.30;99.90
580;DHT22;276;48.392;9.950;2023-05-10T11:57:20;18.10;99.90
580;DHT22;276;48.392;9.950;2023-05-10T11:59:46;17.90;99.90
580;DHT22;276;48.392;9.950;2023-05-10T12:02:13;17.70;99.90
580;DHT22;276;48.392;9.950;2023-05-10T12:04:39;17.70;99.90
580;DHT22;276;48.392;9.950;2023-05-10T12:07:07;17.50;99.90
580;DHT22;276;48.392;9.950;2023-05-10T12:09:33;17.40;99.90
580;DHT22;276;48.392;9.950;2023-05-10T12:11:58;17.30;99.90
580;DHT22;276;48.392;9.950;2023-05-10T12:14:24;17.20;99.90
580;DHT22;276;48.392;9.950;2023-05-10T12:16:52;17.20;99.90
580;DHT22;276;48.392;9.950;2023-05-10T12:19:20;17.20;99.90
580;DHT22;276;48.392;9.950;2023-05-10T12:21:47;17.30;99.90
580;DHT22;276;48.392;9.950;2023-05-10T12:24:14;17.20;99.90
580;DHT22;276;48.392;9.950;2023-05-10T12:26:44;17.10;99.90
580;DHT22;276;48.392;9.950;2023-05-10T12:29:17;17.10;99.90
580;DHT22;276;48.392;9.950;2023-05-10T12:31:54;17.00;99.90
580;DHT22;276;48.392;9.950;2023-05-10T12:34:42;17.00;99.90
580;DHT22;276;48.392;9.950;2023-05-10T12:37:12;16.90;99.90
580;DHT22;276;48.392;9.950;2023-05-10T12:39:44;16.80;99.90
580;DHT22;276;48.392;9.950;2023-05-10T12:42:11;16.80;99.90
580;DHT22;276;48.392;9.950;2023-05-10T12:44:39;16.80;99.90
580;DHT22;276;48.392;9.950;2023-05-10T12:47:07;16.80;99.90
580;DHT22;276;48.392;9.950;2023-05-10T12:49:33;16.80;99.90
580;DHT22;276;48.392;9.950;2023-05-10T12:51:59;16.80;99.90
580;DHT22;276;48.392;9.950;2023-05-10T12:54:24;16.70;99.90
580;DHT22;276;48.392;9.950;2023-05-10T12:56:50;16.80;99.90
580;DHT22;276;48.392;9.950;2023-05-10T12:59:16;16.80;99.90
580;DHT22;276;48.392;9.950;2023-05-10T13:01:41;16.80;99.90
580;DHT22;276;48.392;9.950;2023-05-10T13:04:07;16.80;99.90
580;DHT22;276;48.392;9.950;2023-05-10T13:06:35;16.70;99.90
580;DHT22;276;48.392;9.950;2023-05-10T13:09:00;16.70;99.90
580;DHT22;276;48.392;9.950;2023-05-10T13:11:26;16.80;99.90
580;DHT22;276;48.392;9.950;2023-05-10T13:13:51;16.80;99.90
580;DHT22;276;48.392;9.950;2023-05-10T13:16:19;16.90;99.90
580;DHT22;276;48.392;9.950;2023-05-10T13:18:45;16.90;99.90
580;DHT22;276;48.392;9.950;2023-05-10T13:21:10;16.90;99.90
580;DHT22;276;48.392;9.950;2023-05-10T13:23:36;16.80;99.90
580;DHT22;276;48.392;9.950;2023-05-10T13:26:02;16.70;99.90
580;DHT22;276;48.392;9.950;2023-05-10T13:28:27;16.60;99.90
580;DHT22;276;48.392;9.950;2023-05-10T13:30:53;16.50;99.90
580;DHT22;276;48.392;9.950;2023-05-10T13:33:18;16.40;99.90
580;DHT22;276;48.392;9.950;2023-05-10T13:35:44;16.40;99.90
580;DHT22;276;48.392;9.950;2023-05-10T13:38:12;16.30;99.90
580;DHT22;276;48.392;9.950;2023-05-10T13:40:38;16.30;99.90
580;DHT22;276;48.392;9.950;2023-05-10T13:43:07;16.30;99.90
580;DHT22;276;48.392;9.950;2023-05-10T13:45:34;16.30;99.90
580;DHT22;276;48.392;9.950;2023-05-10T13:48:01;16.30;99.90
580;DHT22;276;48.392;9.950;2023-05-10T13:50:26;16.30;99.90
580;DHT22;276;48.392;9.950;2023-05-10T13:52:54;16.30;99.90
580;DHT22;276;48.392;9.950;2023-05-10T13:55:19;16.30;99.90
580;DHT22;276;48.392;9.950;2023-05-10T13:57:45;16.40;99.90
580;DHT22;276;48.392;9.950;2023-05-10T14:00:11;16.40;99.90
580;DHT22;276;48.392;9.950;2023-05-10T14:02:37;16.40;99.90
580;DHT22;276;48.392;9.950;2023-05-10T14:05:07;16.40;99.90
580;DHT22;276;48.392;9.950;2023-05-10T14:07:33;16.40;99.90
580;DHT22;276;48.392;9.950;2023-05-10T14:10:00;16.50;99.90
580;DHT22;276;48.392;9.950;2023-05-10T14:12:27;16.50;99.90
580;DHT22;276;48.392;9.950;2023-05-10T14:14:53;16.50;99.90
580;DHT22;276;48.392;9.950;2023-05-10T14:17:18;16.50;99.90
580;DHT22;276;48.392;9.950;2023-05-10T14:19:44;16.50;99.90
580;DHT22;276;48.392;9.950;2023-05-10T14:22:10;16.50;99.90
580;DHT22;276;48.392;9.950;2023-05-10T14:24:35;16.60;99.90
580;DHT22;276;48.392;9.950;2023-05-10T14:27:01;16.60;99.90
580;DHT22;276;48.392;9.950;2023-05-10T14:29:27;16.70;99.90
580;DHT22;276;48.392;9.950;2023-05-10T14:31:57;16.70;99.90
580;DHT22;276;48.392;9.950;2023-05-10T14:34:25;16.70;99.90
580;DHT22;276;48.392;9.950;2023-05-10T14:36:55;16.70;99.90
580;DHT22;276;48.392;9.950;2023-05-10T14:39:21;16.60;99.90
580;DHT22;276;48.392;9.950;2023-05-10T14:41:48;16.60;99.90
580;DHT22;276;48.392;9.950;2023-05-10T14:44:13;16.60;99.90
580;DHT22;276;48.392;9.950;2023-05-10T14:46:40;16.50;99.90
580;DHT22;276;48.392;9.950;2023-05-10T14:49:07;16.30;99.90
580;DHT22;276;48.392;9.950;2023-05-10T14:51:32;16.30;99.90
580;DHT22;276;48.392;9.950;2023-05-10T14:53:58;16.30;99.90
580;DHT22;276;48.392;9.950;2023-05-10T14:56:26;16.20;99.90
580;DHT22;276;48.392;9.950;2023-05-10T14:58:53;16.20;99.90
580;DHT22;276;48.392;9.950;2023-05-10T15:01:18;16.30;99.90
580;DHT22;276;48.392;9.950;2023-05-10T15:03:46;16.30;99.90
580;DHT22;276;48.392;9.950;2023-05-10T15:06:14;16.40;99.90
580;DHT22;276;48.392;9.950;2023-05-10T15:08:39;16.50;99.90
580;DHT22;276;48.392;9.950;2023-05-10T15:11:05;16.50;99.90
580;DHT22;276;48.392;9.950;2023-05-10T15:13:33;16.60;99.90
580;DHT22;276;48.392;9.950;2023-05-10T15:15:58;16.60;99.90
580;DHT22;276;48.392;9.950;2023-05-10T15:18:24;16.70;99.90
580;DHT22;276;48.392;9.950;2023-05-10T15:20:50;16.70;99.90
580;DHT22;276;48.392;9.950;2023-05-10T15:23:15;16.70;99.90
580;DHT22;276;48.392;9.950;2023-05-10T15:25:41;16.70;99.90
580;DHT22;276;48.392;9.950;2023-05-10T15:28:09;16.70;99.90
580;DHT22;276;48.392;9.950;2023-05-10T15:30:37;16.70;99.90
580;DHT22;276;48.392;9.950;2023-05-10T15:33:04;16.70;99.90
580;DHT22;276;48.392;9.950;2023-05-10T15:35:30;16.70;99.90
580;DHT22;276;48.392;9.950;2023-05-10T15:37:58;16.70;99.90
580;DHT22;276;48.392;9.950;2023-05-10T15:40:24;16.70;99.90
580;DHT22;276;48.392;9.950;2023-05-10T15:42:49;16.70;99.90
580;DHT22;276;48.392;9.950;2023-05-10T15:45:20;16.70;99.90
580;DHT22;276;48.392;9.950;2023-05-10T15:47:45;16.60;99.90
580;DHT22;276;48.392;9.950;2023-05-10T15:50:11;16.50;99.90
580;DHT22;276;48.392;9.950;2023-05-10T15:52:37;16.50;99.90
580;DHT22;276;48.392;9.950;2023-05-10T15:55:03;16.50;99.90
580;DHT22;276;48.392;9.950;2023-05-10T15:57:29;16.50;99.90
580;DHT22;276;48.392;9.950;2023-05-10T15:59:57;16.40;99.90
580;DHT22;276;48.392;9.950;2023-05-10T16:02:25;16.40;99.90
580;DHT22;276;48.392;9.950;2023-05-10T16:04:53;16.50;99.90
580;DHT22;276;48.392;9.950;2023-05-10T16:07:21;16.50;99.90
580;DHT22;276;48.392;9.950;2023-05-10T16:09:49;16.50;99.90
580;DHT22;276;48.392;9.950;2023-05-10T16:12:15;16.50;99.90
580;DHT22;276;48.392;9.950;2023-05-10T16:14:45;16.50;99.90
580;DHT22;276;48.392;9.950;2023-05-10T16:17:13;16.50;99.90
580;DHT22;276;48.392;9.950;2023-05-10T16:19:41;16.40;99.90
580;DHT22;276;48.392;9.950;2023-05-10T16:22:07;16.30;99.90
580;DHT22;276;48.392;9.950;2023-05-10T16:24:32;16.30;99.90
580;DHT22;276;48.392;9.950;2023-05-10T16:26:58;16.30;99.90
580;DHT22;276;48.392;9.950;2023-05-10T16:29:23;16.20;99.90
580;DHT22;276;48.392;9.950;2023-05-10T16:31:49;16.20;99.90
580;DHT22;276;48.392;9.950;2023-05-10T16:34:15;16.20;99.90
580;DHT22;276;48.392;9.950;2023-05-10T16:36:41;16.20;99.90
580;DHT22;276;48.392;9.950;2023-05-10T16:39:06;16.20;99.90
580;DHT22;276;48.392;9.950;2023-05-10T16:41:34;16.20;99.90
580;DHT22;276;48.392;9.950;2023-05-10T16:44:00;16.20;99.90
580;DHT22;276;48.392;9.950;2023-05-10T16:46:25;16.20;99.90
580;DHT22;276;48.392;9.950;2023-05-10T16:48:51;16.20;99.90
580;DHT22;276;48.392;9.950;2023-05-10T16:51:21;16.20;99.90
580;DHT22;276;48.392;9.950;2023-05-10T16:53:52;16.10;99.90
580;DHT22;276;48.392;9.950;2023-05-10T16:56:20;16.00;99.90
580;DHT22;276;48.392;9.950;2023-05-10T16:58:47;16.10;99.90
580;DHT22;276;48.392;9.950;2023-05-10T17:01:15;16.10;99.90